Time;durP1;ratioP1;P1;durP2;ratioP2;P2;SDS_P1;SDS_P2;PMS_P1;PMS_P2;Temp;Humidity;BMP_temperature;BMP_pressure;BME280_temperature;BME280_humidity;BME280_pressure;Samples;Min_cycle;Max_cycle;Signal;HPM_P1;HPM_P2
2022/03/24 00:01:02;;;;;;;34.47;23.50;;;8.60;1.00;;;;;;5069919;28;20520;-61
2022/03/24 00:03:28;;;;;;;29.07;23.00;;;8.60;1.00;;;;;;5069728;28;20207;-59
2022/03/24 00:05:54;;;;;;;37.03;24.53;;;8.50;1.00;;;;;;5069833;28;20237;-60
2022/03/24 00:08:20;;;;;;;31.50;22.50;;;8.50;1.00;;;;;;5071832;28;20183;-59
2022/03/24 00:10:45;;;;;;;27.70;21.60;;;8.50;1.00;;;;;;5073379;28;20457;-61
2022/03/24 00:13:11;;;;;;;28.57;23.20;;;8.40;1.00;;;;;;5073416;28;20697;-61
2022/03/24 00:15:36;;;;;;;30.40;22.60;;;8.40;1.00;;;;;;5073565;28;20209;-59
2022/03/24 00:18:02;;;;;;;31.00;22.90;;;8.30;1.00;;;;;;5073492;28;20541;-61
2022/03/24 00:20:28;;;;;;;32.60;22.33;;;8.40;1.00;;;;;;5073261;28;20592;-62
2022/03/24 00:22:54;;;;;;;40.50;22.87;;;8.30;1.00;;;;;;5073110;28;20294;-61
2022/03/24 00:25:19;;;;;;;32.10;23.37;;;8.30;1.00;;;;;;5070703;28;20550;-60
2022/03/24 00:27:45;;;;;;;32.50;23.90;;;8.30;1.00;;;;;;5073445;28;20211;-60
2022/03/24 00:30:12;;;;;;;28.17;22.10;;;8.30;1.00;;;;;;5073046;28;20226;-61
2022/03/24 00:32:38;;;;;;;29.83;22.23;;;8.30;1.00;;;;;;5073238;28;20199;-62
2022/03/24 00:35:04;;;;;;;32.93;22.77;;;8.20;1.00;;;;;;5073410;28;20444;-62
2022/03/24 00:37:31;;;;;;;32.70;24.33;;;;;;;;;;5072495;28;20195;-59
2022/03/24 00:39:56;;;;;;;30.77;22.60;;;8.00;1.00;;;;;;5072745;28;20444;-59
2022/03/24 00:42:22;;;;;;;32.83;24.50;;;7.90;1.00;;;;;;5072998;28;20457;-60
2022/03/24 00:44:49;;;;;;;36.17;24.70;;;7.90;1.00;;;;;;5055387;28;20290;-61
2022/03/24 00:47:15;;;;;;;32.00;23.73;;;7.90;1.00;;;;;;5073294;28;20426;-60
2022/03/24 00:49:41;;;;;;;30.97;22.37;;;7.90;1.00;;;;;;5072874;28;20437;-61
2022/03/24 00:52:09;;;;;;;35.27;23.03;;;7.90;1.00;;;;;;5073032;28;20237;-60
2022/03/24 00:54:35;;;;;;;35.07;22.77;;;7.90;1.00;;;;;;5072823;28;20506;-60
2022/03/24 00:57:01;;;;;;;30.67;23.30;;;7.90;1.00;;;;;;5072378;28;20430;-59
2022/03/24 00:59:27;;;;;;;29.33;23.43;;;7.80;1.00;;;;;;5072385;28;20202;-60
2022/03/24 01:01:55;;;;;;;34.23;24.50;;;7.80;1.00;;;;;;5072795;28;20477;-60
2022/03/24 01:04:21;;;;;;;30.03;22.30;;;7.70;1.00;;;;;;5055000;28;20449;-60
2022/03/24 01:06:48;;;;;;;28.33;22.33;;;7.70;1.00;;;;;;5072160;28;20466;-59
2022/03/24 01:09:14;;;;;;;36.33;25.27;;;7.60;1.00;;;;;;5072324;28;20536;-61
2022/03/24 01:11:40;;;;;;;30.10;22.27;;;7.60;1.00;;;;;;5072297;28;20446;-59
2022/03/24 01:14:07;;;;;;;35.47;23.60;;;7.60;1.00;;;;;;5054102;28;20180;-59
2022/03/24 01:16:34;;;;;;;32.63;22.67;;;7.60;1.00;;;;;;5072391;28;20437;-61
2022/03/24 01:18:59;;;;;;;30.77;23.63;;;7.50;1.00;;;;;;5067197;28;20454;-59
2022/03/24 01:21:25;;;;;;;37.50;23.20;;;7.50;1.00;;;;;;5071898;28;20800;-58
2022/03/24 01:23:50;;;;;;;34.20;24.30;;;7.50;1.00;;;;;;5072089;28;20625;-59
2022/03/24 01:26:17;;;;;;;30.10;21.97;;;7.40;1.00;;;;;;5071965;28;20210;-61
2022/03/24 01:28:42;;;;;;;31.20;23.53;;;7.40;1.00;;;;;;5072048;28;20179;-61
2022/03/24 01:31:47;;;;;;;35.60;24.63;;;7.40;1.00;;;;;;5072210;28;20425;-61
2022/03/24 01:34:13;;;;;;;32.70;23.50;;;7.40;1.00;;;;;;5071833;28;20187;-60
2022/03/24 01:36:39;;;;;;;33.97;24.40;;;7.30;1.00;;;;;;5071944;28;20441;-59
2022/03/24 01:39:04;;;;;;;31.43;24.97;;;7.30;1.00;;;;;;5072051;28;20437;-62
2022/03/24 01:41:30;;;;;;;34.93;22.80;;;7.20;1.00;;;;;;5071525;28;20191;-61
2022/03/24 01:43:55;;;;;;;35.90;24.27;;;7.30;1.00;;;;;;5071937;28;20532;-59
2022/03/24 01:46:22;;;;;;;33.23;22.77;;;7.20;1.00;;;;;;5071476;28;20721;-61
2022/03/24 01:48:48;;;;;;;28.60;22.37;;;7.20;1.00;;;;;;5071937;28;20752;-62
2022/03/24 01:51:16;;;;;;;31.63;21.57;;;7.10;1.00;;;;;;5071567;28;20438;-62
2022/03/24 01:53:42;;;;;;;31.00;22.77;;;7.10;1.00;;;;;;5071610;28;20270;-61
2022/03/24 01:56:15;;;;;;;29.60;22.47;;;7.10;1.00;;;;;;5071506;28;20545;-61
2022/03/24 01:58:41;;;;;;;31.27;23.07;;;7.10;1.00;;;;;;5066238;28;20569;-60
2022/03/24 02:01:37;;;;;;;30.40;22.17;;;7.10;1.00;;;;;;5071417;28;20449;-61
2022/03/24 02:04:04;;;;;;;27.20;20.70;;;7.10;1.00;;;;;;5050358;28;20437;-60
2022/03/24 02:06:33;;;;;;;30.47;22.90;;;7.00;1.00;;;;;;5053617;28;20929;-60
2022/03/24 02:09:00;;;;;;;37.33;25.60;;;7.00;1.00;;;;;;5071390;28;20879;-58
2022/03/24 02:11:34;;;;;;;32.73;24.33;;;7.00;1.00;;;;;;5071303;28;20433;-60
2022/03/24 02:14:00;;;;;;;31.70;24.27;;;6.90;1.00;;;;;;5071174;28;20456;-60
2022/03/24 02:16:30;;;;;;;35.30;23.07;;;6.90;1.00;;;;;;5069447;28;20938;-60
2022/03/24 02:19:00;;;;;;;30.90;23.10;;;6.90;1.00;;;;;;5068652;28;20437;-61
2022/03/24 02:21:26;;;;;;;31.53;23.27;;;6.90;1.00;;;;;;5070684;28;20441;-60
2022/03/24 02:23:51;;;;;;;35.63;21.90;;;6.90;1.00;;;;;;5071223;28;20425;-60
2022/03/24 02:26:17;;;;;;;35.17;22.57;;;6.80;1.00;;;;;;5070946;28;20430;-59
2022/03/24 02:28:45;;;;;;;36.97;23.23;;;6.70;1.00;;;;;;5070648;28;20199;-60
2022/03/24 02:31:16;;;;;;;28.17;21.00;;;6.80;1.00;;;;;;5070205;28;20453;-61
2022/03/24 02:33:42;;;;;;;32.60;21.73;;;6.90;1.00;;;;;;5070718;28;20437;-59
2022/03/24 02:36:14;;;;;;;27.50;21.07;;;6.90;1.00;;;;;;5070740;28;20426;-60
2022/03/24 02:38:40;;;;;;;31.23;22.70;;;6.90;1.00;;;;;;5070643;28;20200;-61
2022/03/24 02:41:15;;;;;;;31.17;23.23;;;6.80;1.00;;;;;;5070666;28;20434;-59
2022/03/24 02:43:41;;;;;;;35.93;23.87;;;;;;;;;;5071022;28;20187;-61
2022/03/24 02:46:12;;;;;;;29.27;22.30;;;6.80;1.00;;;;;;5070509;28;20437;-62
2022/03/24 02:48:38;;;;;;;31.57;24.07;;;;;;;;;;5070499;28;20999;-60
2022/03/24 02:51:06;;;;;;;33.07;24.13;;;6.80;1.00;;;;;;5070806;28;20520;-62
2022/03/24 02:53:45;;;;;;;36.43;24.03;;;6.70;1.00;;;;;;5070243;28;20449;-60
2022/03/24 02:56:17;;;;;;;32.40;21.80;;;6.60;1.00;;;;;;5070925;28;20440;-62
2022/03/24 02:58:42;;;;;;;32.43;23.47;;;6.40;1.00;;;;;;5070442;28;20190;-60
2022/03/24 03:01:18;;;;;;;32.17;23.23;;;6.50;1.00;;;;;;5070646;28;20429;-60
2022/03/24 03:03:43;;;;;;;33.53;22.67;;;6.40;1.00;;;;;;5067882;28;20649;-62
2022/03/24 03:06:14;;;;;;;31.57;22.40;;;6.40;1.00;;;;;;5070681;28;20453;-60
2022/03/24 03:08:39;;;;;;;30.47;21.80;;;6.40;1.00;;;;;;5070800;28;20215;-59
2022/03/24 03:11:05;;;;;;;30.33;22.97;;;6.30;1.00;;;;;;5070651;28;20936;-61
2022/03/24 03:13:31;;;;;;;33.80;23.77;;;6.30;1.00;;;;;;5070390;28;20184;-60
2022/03/24 03:15:57;;;;;;;30.50;22.13;;;6.30;1.00;;;;;;5070408;28;20210;-61
2022/03/24 03:18:22;;;;;;;35.80;24.60;;;6.20;1.00;;;;;;5070377;28;20437;-60
2022/03/24 03:20:48;;;;;;;30.83;22.40;;;6.20;1.00;;;;;;5070283;28;20191;-58
2022/03/24 03:23:14;;;;;;;29.07;23.07;;;6.20;1.00;;;;;;5070344;28;20207;-59
2022/03/24 03:25:39;;;;;;;32.53;22.73;;;6.20;1.00;;;;;;5070038;28;20278;-59
2022/03/24 03:28:07;;;;;;;33.10;23.43;;;6.20;1.00;;;;;;5070222;28;20183;-59
2022/03/24 03:30:32;;;;;;;34.23;23.40;;;6.10;1.00;;;;;;5067749;28;20187;-60
2022/03/24 03:32:58;;;;;;;33.17;23.40;;;;;;;;;;5070323;28;20434;-59
2022/03/24 03:35:24;;;;;;;28.80;22.30;;;6.00;1.00;;;;;;5070215;28;20199;-59
2022/03/24 03:37:49;;;;;;;32.47;24.37;;;6.00;1.00;;;;;;5069977;28;20951;-61
2022/03/24 03:40:15;;;;;;;32.93;23.03;;;5.90;1.00;;;;;;5070488;28;20187;-60
2022/03/24 03:42:40;;;;;;;32.10;23.60;;;6.00;1.00;;;;;;5070851;28;20199;-60
2022/03/24 03:45:07;;;;;;;35.53;24.20;;;6.00;1.00;;;;;;5073886;28;20179;-60
2022/03/24 03:47:33;;;;;;;34.53;25.73;;;5.90;1.00;;;;;;5074074;28;20183;-62
2022/03/24 03:49:58;;;;;;;39.40;25.53;;;5.90;1.00;;;;;;5074181;28;20495;-62
2022/03/24 03:52:24;;;;;;;37.70;23.67;;;5.90;1.00;;;;;;5073817;28;20179;-60
2022/03/24 03:54:49;;;;;;;41.10;23.87;;;5.90;1.00;;;;;;5073763;28;20194;-61
2022/03/24 03:57:15;;;;;;;32.33;23.60;;;5.90;1.00;;;;;;5073782;28;20191;-62
2022/03/24 03:59:40;;;;;;;33.47;23.87;;;5.80;1.00;;;;;;5073582;28;20202;-60
2022/03/24 04:02:06;;;;;;;31.10;24.00;;;5.80;1.00;;;;;;5073582;28;20284;-61
2022/03/24 04:04:32;;;;;;;35.50;24.27;;;5.80;1.00;;;;;;5073741;28;20194;-61
2022/03/24 04:06:57;;;;;;;32.73;23.63;;;5.70;1.00;;;;;;5070718;28;20246;-61
2022/03/24 04:09:23;;;;;;;32.20;23.10;;;5.70;1.00;;;;;;5072983;28;20426;-59
2022/03/24 04:11:48;;;;;;;30.77;21.67;;;5.70;1.00;;;;;;5073405;28;20179;-60
2022/03/24 04:14:14;;;;;;;35.17;24.00;;;5.60;1.00;;;;;;5073335;28;20981;-60
2022/03/24 04:16:40;;;;;;;32.17;22.73;;;5.60;1.00;;;;;;5073476;28;20197;-61
2022/03/24 04:19:07;;;;;;;41.30;23.70;;;5.70;1.00;;;;;;5055419;28;20189;-60
2022/03/24 04:21:33;;;;;;;33.80;23.30;;;5.60;1.00;;;;;;5072989;28;20191;-59
2022/03/24 04:23:58;;;;;;;34.70;22.70;;;5.60;1.00;;;;;;5073261;28;20425;-59
2022/03/24 04:26:24;;;;;;;33.37;23.00;;;5.50;1.00;;;;;;5073045;28;20182;-59
2022/03/24 04:28:51;;;;;;;31.93;22.33;;;5.50;1.00;;;;;;5073121;28;20201;-61
2022/03/24 04:31:16;;;;;;;33.23;23.67;;;5.60;1.00;;;;;;5073457;28;20597;-60
2022/03/24 04:33:42;;;;;;;31.33;22.33;;;5.60;1.00;;;;;;5073328;28;20469;-61
2022/03/24 04:36:08;;;;;;;32.07;21.63;;;5.50;1.00;;;;;;5072861;28;20278;-60
2022/03/24 04:38:35;;;;;;;32.67;24.37;;;5.50;1.00;;;;;;5073138;28;20525;-60
2022/03/24 04:41:01;;;;;;;32.90;22.73;;;5.50;1.00;;;;;;5073150;28;20188;-60
2022/03/24 04:43:27;;;;;;;31.67;23.27;;;5.40;1.00;;;;;;5072857;28;20469;-59
2022/03/24 04:45:53;;;;;;;35.13;23.93;;;5.40;1.00;;;;;;5072809;28;20186;-60
2022/03/24 04:48:18;;;;;;;29.50;22.73;;;5.50;1.00;;;;;;5072790;28;20433;-59
2022/03/24 04:50:44;;;;;;;30.97;23.60;;;5.50;1.00;;;;;;5070648;28;20199;-60
2022/03/24 04:53:17;;;;;;;29.80;21.70;;;5.40;1.00;;;;;;5072502;28;20328;-60
2022/03/24 04:55:44;;;;;;;31.53;22.73;;;5.30;1.00;;;;;;5071624;28;20685;-60
2022/03/24 04:58:10;;;;;;;32.73;23.10;;;5.50;1.00;;;;;;5072464;28;20917;-61
2022/03/24 05:00:36;;;;;;;28.80;22.07;;;5.40;1.00;;;;;;5072418;28;20526;-62
2022/03/24 05:03:02;;;;;;;28.50;20.00;;;5.40;1.00;;;;;;5054287;28;20519;-61
2022/03/24 05:05:27;;;;;;;31.47;21.40;;;5.30;1.00;;;;;;5072403;28;20191;-61
2022/03/24 05:07:54;;;;;;;29.73;20.47;;;5.30;1.00;;;;;;5072213;28;20679;-60
2022/03/24 05:10:19;;;;;;;34.27;22.70;;;5.30;1.00;;;;;;5072545;28;20441;-59
2022/03/24 05:12:45;;;;;;;30.17;22.03;;;5.30;1.00;;;;;;5072255;28;20362;-61
2022/03/24 05:15:13;;;;;;;29.67;21.87;;;5.30;1.00;;;;;;5072376;28;20179;-62
2022/03/24 05:17:40;;;;;;;27.93;21.93;;;5.30;1.00;;;;;;5054101;28;20214;-60
2022/03/24 05:20:07;;;;;;;32.83;22.77;;;5.30;1.00;;;;;;5072436;28;20445;-59
2022/03/24 05:22:35;;;;;;;32.10;23.10;;;5.30;1.00;;;;;;5072194;28;20467;-61
2022/03/24 05:25:01;;;;;;;31.07;21.50;;;5.30;1.00;;;;;;5072391;28;20438;-61
2022/03/24 05:27:26;;;;;;;32.23;22.43;;;5.30;1.00;;;;;;5071971;28;20515;-60
2022/03/24 05:29:52;;;;;;;30.47;20.53;;;5.30;1.00;;;;;;5072280;28;20816;-59
2022/03/24 05:32:18;;;;;;;31.90;22.07;;;5.40;1.00;;;;;;5071800;28;20187;-61
2022/03/24 05:34:44;;;;;;;34.47;23.43;;;5.30;1.00;;;;;;5071875;28;20192;-59
2022/03/24 05:37:09;;;;;;;32.60;22.27;;;5.40;1.00;;;;;;5072013;28;20721;-60
2022/03/24 05:39:35;;;;;;;29.33;21.47;;;5.40;1.00;;;;;;5071793;28;20446;-61
2022/03/24 05:42:02;;;;;;;33.33;21.20;;;5.40;1.00;;;;;;5071999;28;20284;-61
2022/03/24 05:44:28;;;;;;;35.03;22.17;;;5.40;1.00;;;;;;5071978;28;20202;-60
2022/03/24 05:46:54;;;;;;;26.53;19.87;;;5.40;1.00;;;;;;5071767;28;20947;-60
2022/03/24 05:49:21;;;;;;;29.47;21.20;;;5.60;1.00;;;;;;5071791;28;20462;-61
2022/03/24 05:51:47;;;;;;;34.57;22.50;;;6.40;1.00;;;;;;5071627;28;20187;-60
2022/03/24 05:54:14;;;;;;;29.50;22.40;;;5.70;1.00;;;;;;5071513;28;20450;-61
2022/03/24 05:56:41;;;;;;;31.63;21.97;;;5.80;1.00;;;;;;5071706;28;20490;-60
2022/03/24 05:59:07;;;;;;;29.27;21.97;;;5.70;1.00;;;;;;5068776;28;20939;-60
2022/03/24 06:01:33;;;;;;;31.50;21.10;;;5.80;1.00;;;;;;5051524;28;20445;-60
2022/03/24 06:04:00;;;;;;;34.90;22.47;;;5.70;1.00;;;;;;5071529;28;20437;-62
2022/03/24 06:06:26;;;;;;;35.37;23.10;;;5.90;1.00;;;;;;5071200;28;20796;-60
2022/03/24 06:08:57;;;;;;;35.77;22.20;;;6.00;1.00;;;;;;5070967;28;20440;-60
2022/03/24 06:11:24;;;;;;;30.20;21.83;;;6.10;1.00;;;;;;5071299;28;20429;-60
2022/03/24 06:13:50;;;;;;;32.83;21.37;;;6.10;1.00;;;;;;5070708;28;20521;-61
2022/03/24 06:16:16;;;;;;;30.47;20.90;;;6.20;1.00;;;;;;5071158;28;20445;-61
2022/03/24 06:18:42;;;;;;;31.10;20.40;;;6.30;1.00;;;;;;5071198;28;20887;-60
2022/03/24 06:21:10;;;;;;;32.83;22.80;;;6.30;1.00;;;;;;5070692;28;20448;-60
2022/03/24 06:23:36;;;;;;;35.03;22.57;;;6.40;1.00;;;;;;5070979;28;20649;-61
2022/03/24 06:26:03;;;;;;;32.40;21.37;;;;;;;;;;5070438;28;20494;-60
2022/03/24 06:28:28;;;;;;;34.60;22.80;;;6.60;1.00;;;;;;5071005;28;20522;-61
2022/03/24 06:30:54;;;;;;;29.47;20.67;;;6.70;1.00;;;;;;5070864;28;20437;-60
2022/03/24 06:33:20;;;;;;;28.40;21.47;;;7.00;1.00;;;;;;5071049;28;20248;-60
2022/03/24 06:35:48;;;;;;;26.63;20.90;;;7.10;1.00;;;;;;5070613;28;20191;-60
2022/03/24 06:38:15;;;;;;;30.57;21.90;;;7.10;1.00;;;;;;5070811;28;20183;-61
2022/03/24 06:40:41;;;;;;;29.10;20.67;;;7.10;1.00;;;;;;5070746;28;20533;-59
2022/03/24 06:43:08;;;;;;;30.33;22.00;;;7.20;1.00;;;;;;5070409;28;20553;-59
2022/03/24 06:45:34;;;;;;;28.60;20.90;;;7.40;1.00;;;;;;5070967;28;20717;-61
2022/03/24 06:48:00;;;;;;;30.50;21.60;;;7.30;1.00;;;;;;5069052;28;20439;-60
2022/03/24 06:50:26;;;;;;;33.87;23.57;;;;;;;;;;5067646;28;20772;-60
2022/03/24 06:52:53;;;;;;;35.27;23.50;;;7.70;1.00;;;;;;5070414;28;20187;-60
2022/03/24 06:55:19;;;;;;;30.80;22.87;;;7.70;1.00;;;;;;5070475;28;20477;-61
2022/03/24 06:57:45;;;;;;;32.03;21.53;;;7.70;1.00;;;;;;5070532;28;20431;-61
2022/03/24 07:00:12;;;;;;;32.70;22.17;;;7.70;1.00;;;;;;5070204;28;20430;-60
2022/03/24 07:02:38;;;;;;;31.50;21.03;;;;;;;;;;5070630;28;20222;-60
2022/03/24 07:05:04;;;;;;;25.50;20.77;;;7.80;1.00;;;;;;5070347;28;20520;-62
2022/03/24 07:07:29;;;;;;;30.07;21.80;;;7.80;1.00;;;;;;5070249;28;20458;-61
2022/03/24 07:09:55;;;;;;;33.27;22.20;;;8.10;1.00;;;;;;5070668;28;20438;-60
2022/03/24 07:12:20;;;;;;;31.00;22.23;;;8.30;1.00;;;;;;5070181;28;20266;-60
2022/03/24 07:14:46;;;;;;;33.43;22.50;;;8.30;1.00;;;;;;5070087;28;20191;-59
2022/03/24 07:17:14;;;;;;;39.53;23.70;;;8.40;1.00;;;;;;5069564;28;20183;-60
2022/03/24 07:19:39;;;;;;;29.10;21.50;;;8.40;1.00;;;;;;5070308;28;20282;-61
2022/03/24 07:22:05;;;;;;;35.40;24.27;;;8.60;1.00;;;;;;5070090;28;20544;-61
2022/03/24 07:24:30;;;;;;;36.00;22.40;;;8.70;1.00;;;;;;5070414;28;20176;-60
2022/03/24 07:26:56;;;;;;;37.23;22.27;;;8.80;1.00;;;;;;5070169;28;20175;-62
2022/03/24 07:29:22;;;;;;;29.67;22.30;;;9.00;1.00;;;;;;5070162;28;20179;-60
2022/03/24 07:31:48;;;;;;;32.03;22.40;;;9.00;1.00;;;;;;5070191;28;20669;-62
2022/03/24 07:34:13;;;;;;;32.63;23.17;;;9.20;1.00;;;;;;5051986;28;20187;-60
2022/03/24 07:36:40;;;;;;;30.60;21.70;;;9.20;1.00;;;;;;5070166;28;20440;-62
2022/03/24 07:39:06;;;;;;;32.83;22.90;;;9.30;1.00;;;;;;5069933;28;20266;-62
2022/03/24 07:41:32;;;;;;;30.37;22.97;;;9.40;1.00;;;;;;5069919;28;20442;-61
2022/03/24 07:43:58;;;;;;;29.53;22.60;;;9.40;1.00;;;;;;5070099;28;20441;-59
2022/03/24 07:46:24;;;;;;;29.97;23.47;;;9.50;1.00;;;;;;5069815;28;20442;-61
2022/03/24 07:48:49;;;;;;;29.03;21.33;;;9.70;1.00;;;;;;5051862;28;20565;-62
2022/03/24 07:51:22;;;;;;;29.87;22.83;;;9.90;1.00;;;;;;5069395;28;20256;-62
2022/03/24 07:53:47;;;;;;;31.20;24.70;;;10.20;1.00;;;;;;5068904;28;20309;-62
2022/03/24 07:56:25;;;;;;;31.73;23.13;;;10.50;1.00;;;;;;5069591;28;20520;-61
2022/03/24 07:58:55;;;;;;;35.30;24.20;;;10.60;1.00;;;;;;5069666;28;20729;-62
2022/03/24 08:01:34;;;;;;;27.10;21.87;;;10.60;1.00;;;;;;5069666;28;20919;-61
2022/03/24 08:04:03;;;;;;;35.17;25.13;;;10.70;1.00;;;;;;5051344;28;20477;-62
2022/03/24 08:06:33;;;;;;;33.17;24.63;;;10.70;1.00;;;;;;5065839;28;20995;-62
2022/03/24 08:08:59;;;;;;;37.17;26.80;;;10.80;1.00;;;;;;5049255;28;20541;-61
2022/03/24 08:11:25;;;;;;;33.63;26.33;;;11.00;1.00;;;;;;5069804;28;20910;-61
2022/03/24 08:13:55;;;;;;;37.93;26.40;;;11.00;1.00;;;;;;5069683;28;20241;-63
2022/03/24 08:16:22;;;;;;;39.33;25.50;;;11.00;1.00;;;;;;5052277;28;20453;-62
2022/03/24 08:18:48;;;;;;;30.87;25.30;;;;;;;;;;5069674;28;20473;-60
2022/03/24 08:21:25;;;;;;;45.30;39.97;;;11.20;1.00;;;;;;5069771;28;20967;-62
2022/03/24 08:23:51;;;;;;;33.00;25.30;;;;;;;;;;5069479;28;20966;-62
2022/03/24 08:26:20;;;;;;;33.17;26.13;;;11.90;1.00;;;;;;5067675;28;20457;-63
2022/03/24 08:28:46;;;;;;;36.00;26.87;;;11.90;1.00;;;;;;5068934;28;20449;-61
2022/03/24 08:31:24;;;;;;;37.00;27.47;;;12.10;1.00;;;;;;5072703;28;20438;-63
2022/03/24 08:33:49;;;;;;;35.53;25.90;;;12.20;1.00;;;;;;5073181;28;20187;-60
2022/03/24 08:36:21;;;;;;;46.20;26.47;;;12.30;1.00;;;;;;5072929;28;20522;-63
2022/03/24 08:38:46;;;;;;;48.97;27.73;;;12.30;1.00;;;;;;5073067;28;20192;-61
2022/03/24 08:41:24;;;;;;;36.13;26.90;;;12.50;1.00;;;;;;5073251;28;20780;-62
2022/03/24 08:43:50;;;;;;;35.47;27.50;;;;;;;;;;5073034;28;20589;-62
2022/03/24 08:46:24;;;;;;;42.90;27.97;;;12.50;1.00;;;;;;5073034;28;20465;-61
2022/03/24 08:48:53;;;;;;;42.43;29.80;;;12.50;1.00;;;;;;5073148;28;20999;-61
2022/03/24 08:51:28;;;;;;;36.77;27.50;;;12.50;1.00;;;;;;5055530;28;20516;-61
2022/03/24 08:53:54;;;;;;;39.90;28.63;;;12.70;1.00;;;;;;5072964;28;20523;-63
2022/03/24 08:56:30;;;;;;;38.73;27.77;;;13.20;1.00;;;;;;5072853;28;20984;-61
2022/03/24 08:58:55;;;;;;;34.00;26.23;;;13.30;1.00;;;;;;5072222;28;20202;-62
2022/03/24 09:01:28;;;;;;;41.17;28.03;;;13.60;1.00;;;;;;5072736;28;20473;-61
2022/03/24 09:03:53;;;;;;;36.40;28.43;;;13.80;1.00;;;;;;5072478;28;20203;-62
2022/03/24 09:06:20;;;;;;;41.83;28.27;;;13.80;1.00;;;;;;5072459;28;20480;-64
2022/03/24 09:08:45;;;;;;;33.87;26.97;;;13.90;1.00;;;;;;5072442;28;20191;-61
2022/03/24 09:11:23;;;;;;;37.13;27.27;;;13.70;1.00;;;;;;5072288;28;20499;-61
2022/03/24 09:13:49;;;;;;;36.07;27.33;;;13.70;1.00;;;;;;5072353;28;20258;-62
2022/03/24 09:16:24;;;;;;;37.63;28.20;;;13.70;1.00;;;;;;5072373;28;20426;-61
2022/03/24 09:18:49;;;;;;;41.37;28.50;;;13.90;1.00;;;;;;5072258;28;20194;-61
2022/03/24 09:21:21;;;;;;;34.80;28.97;;;13.90;1.00;;;;;;5072310;28;20460;-62
2022/03/24 09:23:47;;;;;;;37.00;29.03;;;13.90;1.00;;;;;;5071900;28;20211;-60
2022/03/24 09:26:23;;;;;;;39.80;29.43;;;13.80;1.00;;;;;;5071951;28;20437;-61
2022/03/24 09:28:51;;;;;;;40.87;28.60;;;13.90;1.00;;;;;;5072037;28;20437;-63
2022/03/24 09:31:23;;;;;;;40.33;27.90;;;14.30;1.00;;;;;;5072152;28;20441;-61
2022/03/24 09:33:49;;;;;;;40.37;28.77;;;14.40;1.00;;;;;;5071763;28;20446;-61
2022/03/24 09:36:24;;;;;;;39.93;31.10;;;14.50;1.00;;;;;;5071694;28;20480;-61
2022/03/24 09:38:50;;;;;;;36.87;28.20;;;14.40;1.00;;;;;;5071967;28;20443;-61
2022/03/24 09:41:31;;;;;;;40.40;31.67;;;14.50;1.00;;;;;;5071158;28;20437;-62
2022/03/24 09:43:58;;;;;;;39.67;30.17;;;14.50;1.00;;;;;;5068632;28;20200;-61
2022/03/24 09:46:32;;;;;;;47.17;32.43;;;15.00;1.00;;;;;;5071288;28;20452;-61
2022/03/24 09:49:00;;;;;;;42.00;29.50;;;15.30;1.00;;;;;;5066503;28;20441;-61
2022/03/24 09:51:26;;;;;;;38.20;30.33;;;15.60;1.00;;;;;;5052010;28;20495;-59
2022/03/24 09:53:53;;;;;;;42.47;32.50;;;15.80;1.00;;;;;;5053685;28;20484;-62
2022/03/24 09:56:32;;;;;;;36.80;28.97;;;15.90;1.00;;;;;;5053268;28;20441;-61
2022/03/24 09:58:57;;;;;;;42.73;30.93;;;15.80;1.00;;;;;;5071595;28;20422;-61
2022/03/24 10:01:39;;;;;;;38.73;31.03;;;15.60;1.00;;;;;;5071062;28;20436;-62
2022/03/24 10:04:14;;;;;;;36.47;27.87;;;15.50;1.00;;;;;;5071580;28;20191;-62
2022/03/24 10:06:56;;;;;;;36.47;30.40;;;15.70;1.00;;;;;;5067365;28;20468;-63
2022/03/24 10:09:43;;;;;;;39.93;30.33;;;15.70;1.00;;;;;;5071227;28;20442;-61
2022/03/24 10:12:30;;;;;;;40.90;30.87;;;15.90;1.00;;;;;;5071494;28;20445;-60
2022/03/24 10:15:16;;;;;;;41.17;31.47;;;15.90;1.00;;;;;;5071186;28;20441;-63
2022/03/24 10:17:50;;;;;;;43.50;31.33;;;15.90;1.00;;;;;;5070667;28;20532;-62
2022/03/24 10:20:16;;;;;;;39.87;31.47;;;15.80;1.00;;;;;;5071475;28;20467;-62
2022/03/24 10:23:06;;;;;;;38.37;30.83;;;16.20;1.00;;;;;;5071060;28;20466;-60
2022/03/24 10:25:34;;;;;;;43.77;30.73;;;16.20;1.00;;;;;;5070882;28;20520;-63
2022/03/24 10:28:18;;;;;;;43.17;31.10;;;16.40;1.00;;;;;;5071185;28;20495;-62
2022/03/24 10:30:54;;;;;;;51.50;30.77;;;16.40;1.00;;;;;;5070995;28;20915;-63
2022/03/24 10:33:35;;;;;;;41.13;31.47;;;16.50;1.00;;;;;;5070750;28;20523;-60
2022/03/24 10:36:32;;;;;;;40.50;30.93;;;16.40;1.00;;;;;;5050564;28;20934;-60
2022/03/24 10:39:00;;;;;;;39.83;30.47;;;16.60;1.00;;;;;;5052719;28;20429;-62
2022/03/24 10:41:38;;;;;;;38.37;30.40;;;16.70;1.00;;;;;;5053038;28;20631;-63
2022/03/24 10:44:11;;;;;;;35.73;29.87;;;16.70;1.00;;;;;;5051482;28;21272;-62
2022/03/24 10:46:42;;;;;;;38.40;29.57;;;;;;;;;;5070464;28;20521;-62
2022/03/24 10:49:23;;;;;;;36.20;27.90;;;16.70;1.00;;;;;;5070849;28;20433;-62
2022/03/24 10:51:51;;;;;;;33.20;24.20;;;16.90;1.00;;;;;;5051975;28;20441;-63
2022/03/24 10:54:25;;;;;;;35.07;23.93;;;16.90;1.00;;;;;;5070420;28;20492;-61
2022/03/24 10:57:03;;;;;;;28.37;22.80;;;17.00;1.00;;;;;;5070162;28;20436;-62
2022/03/24 10:59:37;;;;;;;31.53;23.07;;;17.50;1.00;;;;;;5070138;28;20432;-62
2022/03/24 11:02:04;;;;;;;29.23;23.63;;;17.50;1.00;;;;;;5070389;28;20469;-62
2022/03/24 11:04:30;;;;;;;34.73;23.03;;;17.80;1.00;;;;;;5070534;28;20438;-63
2022/03/24 11:06:55;;;;;;;33.10;23.27;;;17.90;1.00;;;;;;5070300;28;20538;-61
2022/03/24 11:09:23;;;;;;;30.50;22.73;;;18.00;1.00;;;;;;5070233;28;20211;-61
2022/03/24 11:12:22;;;;;;;29.13;22.53;;;18.10;1.00;;;;;;5070023;28;20190;-62
2022/03/24 11:14:50;;;;;;;31.07;22.43;;;18.00;1.00;;;;;;5070062;28;20440;-60
2022/03/24 11:17:17;;;;;;;25.13;21.23;;;18.10;1.00;;;;;;5052219;28;20530;-63
2022/03/24 11:19:54;;;;;;;25.70;19.97;;;17.90;1.00;;;;;;5070352;28;20492;-62
2022/03/24 11:22:21;;;;;;;28.23;20.60;;;17.90;1.00;;;;;;5070130;28;20500;-63
2022/03/24 11:24:47;;;;;;;24.73;21.00;;;18.00;1.00;;;;;;5069901;28;21092;-62
2022/03/24 11:27:13;;;;;;;25.33;20.63;;;;;;;;;;5052120;28;20433;-62
2022/03/24 11:29:40;;;;;;;25.13;21.60;;;18.40;1.00;;;;;;5069946;28;20437;-61
2022/03/24 11:32:07;;;;;;;25.73;21.47;;;18.40;1.00;;;;;;5070233;28;20796;-63
2022/03/24 11:34:34;;;;;;;26.70;21.20;;;18.40;1.00;;;;;;5069763;28;20581;-61
2022/03/24 11:37:01;;;;;;;25.30;21.07;;;18.40;1.00;;;;;;5069748;28;20425;-63
2022/03/24 11:39:27;;;;;;;27.93;21.20;;;18.80;1.00;;;;;;5069819;28;20429;-62
2022/03/24 11:41:56;;;;;;;32.60;21.63;;;18.70;1.00;;;;;;5068063;28;20449;-62
2022/03/24 11:44:45;;;;;;;23.10;20.57;;;18.70;1.00;;;;;;5069819;28;20195;-62
2022/03/24 11:47:13;;;;;;;31.17;21.07;;;19.20;1.00;;;;;;5069081;28;20498;-63
2022/03/24 11:49:39;;;;;;;25.40;20.40;;;19.00;1.00;;;;;;5069692;28;20480;-63
2022/03/24 11:52:04;;;;;;;21.93;18.27;;;19.00;1.00;;;;;;5069648;28;20950;-63
2022/03/24 11:54:38;;;;;;;22.57;19.33;;;19.00;1.00;;;;;;5069967;28;20248;-61
2022/03/24 11:57:35;;;;;;;30.20;21.30;;;19.10;1.00;;;;;;5051749;28;20183;-61
2022/03/24 12:00:16;;;;;;;27.00;21.70;;;18.70;1.00;;;;;;5069685;28;20464;-61
2022/03/24 12:02:43;;;;;;;24.30;20.10;;;;;;;;;;5069833;28;20465;-64
2022/03/24 12:05:10;;;;;;;22.57;20.07;;;18.40;1.00;;;;;;5072682;28;20440;-62
2022/03/24 12:07:36;;;;;;;22.63;20.20;;;18.30;1.00;;;;;;5073203;28;20457;-60
2022/03/24 12:10:12;;;;;;;24.70;21.00;;;18.30;1.00;;;;;;5073175;28;20479;-62
2022/03/24 12:12:39;;;;;;;24.50;20.23;;;18.20;1.00;;;;;;5073302;28;20460;-63
2022/03/24 12:15:16;;;;;;;24.50;20.60;;;18.20;1.00;;;;;;5073196;28;20524;-61
2022/03/24 12:18:08;;;;;;;28.80;22.67;;;18.20;1.00;;;;;;5073352;28;20448;-62
2022/03/24 12:20:45;;;;;;;33.83;21.27;;;18.20;1.00;;;;;;5072869;28;20433;-61
2022/03/24 12:23:11;;;;;;;29.93;21.37;;;18.60;1.00;;;;;;5072719;28;20496;-62
2022/03/24 12:25:38;;;;;;;25.20;20.40;;;18.70;1.00;;;;;;5072420;28;20473;-64
2022/03/24 12:28:09;;;;;;;25.67;21.90;;;19.00;1.00;;;;;;5073235;28;20176;-62
2022/03/24 12:30:49;;;;;;;26.03;20.23;;;19.00;1.00;;;;;;5072876;28;20490;-62
2022/03/24 12:33:17;;;;;;;28.20;22.37;;;19.00;1.00;;;;;;5073129;28;20434;-61
2022/03/24 12:35:46;;;;;;;30.43;24.10;;;19.20;1.00;;;;;;5054978;28;20991;-60
2022/03/24 12:38:37;;;;;;;27.60;22.70;;;19.50;1.00;;;;;;5072826;28;20429;-62
2022/03/24 12:41:06;;;;;;;27.13;22.87;;;19.40;1.00;;;;;;5061375;28;20450;-61
2022/03/24 12:43:40;;;;;;;27.63;22.60;;;19.30;1.00;;;;;;5072770;28;20857;-61
2022/03/24 12:46:32;;;;;;;29.17;24.67;;;19.20;1.00;;;;;;5072598;28;20461;-62
2022/03/24 12:49:05;;;;;;;28.20;23.77;;;19.30;1.00;;;;;;5072792;28;20468;-61
2022/03/24 12:51:31;;;;;;;26.63;23.40;;;19.10;1.00;;;;;;5072790;28;20442;-61
2022/03/24 12:54:16;;;;;;;35.63;24.87;;;19.00;1.00;;;;;;5072561;28;20456;-62